sensor_id;sensor_type;location;lat;lon;timestamp;P1;durP1;ratioP1;P2;durP2;ratioP2
55589;SDS011;41452;42.780;23.116;2022-08-19T00:00:28;7.45;;;4.40;;
55589;SDS011;41452;42.780;23.116;2022-08-19T00:02:53;7.38;;;4.32;;
55589;SDS011;41452;42.780;23.116;2022-08-19T00:05:19;8.75;;;4.78;;
55589;SDS011;41452;42.780;23.116;2022-08-19T00:07:46;9.40;;;4.60;;
55589;SDS011;41452;42.780;23.116;2022-08-19T00:10:13;10.43;;;5.22;;
55589;SDS011;41452;42.780;23.116;2022-08-19T00:12:40;7.03;;;4.82;;
55589;SDS011;41452;42.780;23.116;2022-08-19T00:15:06;9.13;;;5.05;;
55589;SDS011;41452;42.780;23.116;2022-08-19T00:17:41;9.35;;;5.05;;
55589;SDS011;41452;42.780;23.116;2022-08-19T00:20:09;14.10;;;5.40;;
55589;SDS011;41452;42.780;23.116;2022-08-19T00:22:37;8.63;;;5.15;;
55589;SDS011;41452;42.780;23.116;2022-08-19T00:25:04;12.15;;;5.32;;
55589;SDS011;41452;42.780;23.116;2022-08-19T00:27:30;9.73;;;5.22;;
55589;SDS011;41452;42.780;23.116;2022-08-19T00:29:56;8.88;;;5.30;;
55589;SDS011;41452;42.780;23.116;2022-08-19T00:32:23;8.60;;;5.00;;
55589;SDS011;41452;42.780;23.116;2022-08-19T00:34:50;7.70;;;4.68;;
55589;SDS011;41452;42.780;23.116;2022-08-19T00:37:17;11.45;;;4.90;;
55589;SDS011;41452;42.780;23.116;2022-08-19T00:39:43;10.02;;;4.93;;
55589;SDS011;41452;42.780;23.116;2022-08-19T00:42:08;10.57;;;4.57;;
55589;SDS011;41452;42.780;23.116;2022-08-19T00:44:34;10.18;;;4.85;;
55589;SDS011;41452;42.780;23.116;2022-08-19T00:47:00;6.97;;;4.28;;
55589;SDS011;41452;42.780;23.116;2022-08-19T00:49:27;8.13;;;4.15;;
55589;SDS011;41452;42.780;23.116;2022-08-19T00:52:07;7.22;;;4.13;;
55589;SDS011;41452;42.780;23.116;2022-08-19T00:54:37;6.72;;;4.10;;
55589;SDS011;41452;42.780;23.116;2022-08-19T00:57:04;8.25;;;4.85;;
55589;SDS011;41452;42.780;23.116;2022-08-19T00:59:34;8.13;;;4.45;;
55589;SDS011;41452;42.780;23.116;2022-08-19T01:02:02;6.53;;;4.20;;
55589;SDS011;41452;42.780;23.116;2022-08-19T01:04:28;5.85;;;4.35;;
55589;SDS011;41452;42.780;23.116;2022-08-19T01:06:53;6.22;;;4.55;;
55589;SDS011;41452;42.780;23.116;2022-08-19T01:09:20;6.75;;;4.25;;
55589;SDS011;41452;42.780;23.116;2022-08-19T01:11:45;6.75;;;3.95;;
55589;SDS011;41452;42.780;23.116;2022-08-19T01:14:11;7.97;;;3.88;;
55589;SDS011;41452;42.780;23.116;2022-08-19T01:16:38;5.30;;;3.80;;
55589;SDS011;41452;42.780;23.116;2022-08-19T01:19:49;5.90;;;4.03;;
55589;SDS011;41452;42.780;23.116;2022-08-19T01:22:01;5.55;;;3.85;;
55589;SDS011;41452;42.780;23.116;2022-08-19T01:24:33;6.00;;;3.72;;
55589;SDS011;41452;42.780;23.116;2022-08-19T01:26:59;8.98;;;4.30;;
55589;SDS011;41452;42.780;23.116;2022-08-19T01:29:24;7.43;;;3.83;;
55589;SDS011;41452;42.780;23.116;2022-08-19T01:31:49;6.75;;;3.78;;
55589;SDS011;41452;42.780;23.116;2022-08-19T01:34:17;8.60;;;3.83;;
55589;SDS011;41452;42.780;23.116;2022-08-19T01:36:44;7.20;;;4.32;;
55589;SDS011;41452;42.780;23.116;2022-08-19T01:39:12;5.63;;;3.85;;
55589;SDS011;41452;42.780;23.116;2022-08-19T01:41:40;6.07;;;3.50;;
55589;SDS011;41452;42.780;23.116;2022-08-19T01:44:06;4.93;;;3.30;;
55589;SDS011;41452;42.780;23.116;2022-08-19T01:46:33;5.57;;;3.83;;
55589;SDS011;41452;42.780;23.116;2022-08-19T01:48:59;8.40;;;3.63;;
55589;SDS011;41452;42.780;23.116;2022-08-19T01:51:25;5.20;;;3.88;;
55589;SDS011;41452;42.780;23.116;2022-08-19T01:53:51;6.13;;;3.78;;
55589;SDS011;41452;42.780;23.116;2022-08-19T01:56:17;8.55;;;3.80;;
55589;SDS011;41452;42.780;23.116;2022-08-19T01:58:45;5.20;;;3.63;;
55589;SDS011;41452;42.780;23.116;2022-08-19T02:01:15;6.75;;;3.88;;
55589;SDS011;41452;42.780;23.116;2022-08-19T02:03:41;8.50;;;4.10;;
55589;SDS011;41452;42.780;23.116;2022-08-19T02:06:07;7.28;;;3.90;;
55589;SDS011;41452;42.780;23.116;2022-08-19T02:08:34;8.45;;;3.58;;
55589;SDS011;41452;42.780;23.116;2022-08-19T02:11:01;7.13;;;3.70;;
55589;SDS011;41452;42.780;23.116;2022-08-19T02:13:27;6.70;;;3.67;;
55589;SDS011;41452;42.780;23.116;2022-08-19T02:15:53;6.82;;;3.97;;
55589;SDS011;41452;42.780;23.116;2022-08-19T02:18:19;7.35;;;3.53;;
55589;SDS011;41452;42.780;23.116;2022-08-19T02:20:44;5.95;;;4.15;;
55589;SDS011;41452;42.780;23.116;2022-08-19T02:23:12;6.30;;;3.75;;
55589;SDS011;41452;42.780;23.116;2022-08-19T02:25:38;7.03;;;3.78;;
55589;SDS011;41452;42.780;23.116;2022-08-19T02:28:04;5.55;;;3.70;;
55589;SDS011;41452;42.780;23.116;2022-08-19T02:30:30;6.40;;;4.13;;
55589;SDS011;41452;42.780;23.116;2022-08-19T02:32:55;9.50;;;4.00;;
55589;SDS011;41452;42.780;23.116;2022-08-19T02:35:21;4.75;;;3.58;;
55589;SDS011;41452;42.780;23.116;2022-08-19T02:37:47;7.85;;;3.90;;
55589;SDS011;41452;42.780;23.116;2022-08-19T02:40:32;7.88;;;3.95;;
55589;SDS011;41452;42.780;23.116;2022-08-19T02:43:09;6.90;;;3.58;;
55589;SDS011;41452;42.780;23.116;2022-08-19T02:45:35;6.75;;;3.70;;
55589;SDS011;41452;42.780;23.116;2022-08-19T02:48:03;4.80;;;3.30;;
55589;SDS011;41452;42.780;23.116;2022-08-19T02:50:29;5.10;;;3.75;;
55589;SDS011;41452;42.780;23.116;2022-08-19T02:52:55;4.88;;;3.80;;
55589;SDS011;41452;42.780;23.116;2022-08-19T02:55:20;10.50;;;4.40;;
55589;SDS011;41452;42.780;23.116;2022-08-19T02:57:46;5.90;;;3.55;;
55589;SDS011;41452;42.780;23.116;2022-08-19T03:00:12;7.70;;;4.55;;
55589;SDS011;41452;42.780;23.116;2022-08-19T03:02:38;8.38;;;3.97;;
55589;SDS011;41452;42.780;23.116;2022-08-19T03:05:04;12.02;;;4.00;;
55589;SDS011;41452;42.780;23.116;2022-08-19T03:07:30;5.18;;;3.90;;
55589;SDS011;41452;42.780;23.116;2022-08-19T03:09:56;7.25;;;4.03;;
55589;SDS011;41452;42.780;23.116;2022-08-19T03:12:21;6.63;;;4.00;;
55589;SDS011;41452;42.780;23.116;2022-08-19T03:14:47;8.50;;;3.53;;
55589;SDS011;41452;42.780;23.116;2022-08-19T03:17:12;5.38;;;3.90;;
55589;SDS011;41452;42.780;23.116;2022-08-19T03:19:38;5.38;;;3.10;;
55589;SDS011;41452;42.780;23.116;2022-08-19T03:22:03;4.55;;;3.80;;
55589;SDS011;41452;42.780;23.116;2022-08-19T03:24:30;5.07;;;3.92;;
55589;SDS011;41452;42.780;23.116;2022-08-19T03:26:56;5.10;;;3.60;;
55589;SDS011;41452;42.780;23.116;2022-08-19T03:29:25;6.35;;;4.00;;
55589;SDS011;41452;42.780;23.116;2022-08-19T03:31:56;6.10;;;4.07;;
55589;SDS011;41452;42.780;23.116;2022-08-19T03:34:26;8.40;;;4.13;;
55589;SDS011;41452;42.780;23.116;2022-08-19T03:36:54;4.95;;;3.60;;
55589;SDS011;41452;42.780;23.116;2022-08-19T03:39:21;6.70;;;4.15;;
55589;SDS011;41452;42.780;23.116;2022-08-19T03:41:48;5.78;;;3.55;;
55589;SDS011;41452;42.780;23.116;2022-08-19T03:44:18;5.15;;;3.67;;
55589;SDS011;41452;42.780;23.116;2022-08-19T03:46:47;7.90;;;4.18;;
55589;SDS011;41452;42.780;23.116;2022-08-19T03:49:17;5.80;;;4.18;;
55589;SDS011;41452;42.780;23.116;2022-08-19T03:51:43;6.60;;;3.75;;
55589;SDS011;41452;42.780;23.116;2022-08-19T03:54:11;7.65;;;4.10;;
55589;SDS011;41452;42.780;23.116;2022-08-19T03:56:39;7.45;;;3.80;;
55589;SDS011;41452;42.780;23.116;2022-08-19T03:59:08;5.88;;;4.22;;
55589;SDS011;41452;42.780;23.116;2022-08-19T04:01:36;6.38;;;4.15;;
55589;SDS011;41452;42.780;23.116;2022-08-19T04:04:01;8.10;;;3.90;;
55589;SDS011;41452;42.780;23.116;2022-08-19T04:06:30;7.43;;;4.10;;
55589;SDS011;41452;42.780;23.116;2022-08-19T04:08:57;7.97;;;4.15;;
55589;SDS011;41452;42.780;23.116;2022-08-19T04:11:25;8.52;;;3.80;;
55589;SDS011;41452;42.780;23.116;2022-08-19T04:13:56;6.97;;;3.90;;
55589;SDS011;41452;42.780;23.116;2022-08-19T04:16:23;5.95;;;4.20;;
55589;SDS011;41452;42.780;23.116;2022-08-19T04:18:53;10.00;;;3.78;;
55589;SDS011;41452;42.780;23.116;2022-08-19T04:21:21;7.88;;;4.05;;
55589;SDS011;41452;42.780;23.116;2022-08-19T04:23:51;6.85;;;3.60;;
55589;SDS011;41452;42.780;23.116;2022-08-19T04:26:18;6.05;;;4.20;;
55589;SDS011;41452;42.780;23.116;2022-08-19T04:28:46;11.13;;;3.78;;
55589;SDS011;41452;42.780;23.116;2022-08-19T04:31:15;7.75;;;4.07;;
55589;SDS011;41452;42.780;23.116;2022-08-19T04:33:43;5.93;;;3.90;;
55589;SDS011;41452;42.780;23.116;2022-08-19T04:36:15;7.50;;;4.20;;
55589;SDS011;41452;42.780;23.116;2022-08-19T04:38:44;5.30;;;3.85;;
55589;SDS011;41452;42.780;23.116;2022-08-19T04:41:09;5.85;;;4.00;;
55589;SDS011;41452;42.780;23.116;2022-08-19T04:43:53;7.38;;;4.30;;
55589;SDS011;41452;42.780;23.116;2022-08-19T04:46:19;13.32;;;4.82;;
55589;SDS011;41452;42.780;23.116;2022-08-19T04:48:45;12.43;;;4.45;;
55589;SDS011;41452;42.780;23.116;2022-08-19T04:51:11;6.63;;;4.35;;
55589;SDS011;41452;42.780;23.116;2022-08-19T04:53:38;11.77;;;4.57;;
55589;SDS011;41452;42.780;23.116;2022-08-19T04:56:07;5.82;;;3.97;;
55589;SDS011;41452;42.780;23.116;2022-08-19T04:58:37;11.50;;;4.88;;
55589;SDS011;41452;42.780;23.116;2022-08-19T05:01:06;6.18;;;4.38;;
55589;SDS011;41452;42.780;23.116;2022-08-19T05:03:32;9.85;;;4.65;;
55589;SDS011;41452;42.780;23.116;2022-08-19T05:05:59;8.75;;;4.53;;
55589;SDS011;41452;42.780;23.116;2022-08-19T05:08:32;11.85;;;4.75;;
55589;SDS011;41452;42.780;23.116;2022-08-19T05:10:58;7.35;;;4.80;;
55589;SDS011;41452;42.780;23.116;2022-08-19T05:13:26;12.80;;;5.28;;
55589;SDS011;41452;42.780;23.116;2022-08-19T05:15:58;7.93;;;4.60;;
55589;SDS011;41452;42.780;23.116;2022-08-19T05:18:25;9.45;;;5.10;;
55589;SDS011;41452;42.780;23.116;2022-08-19T05:21:13;9.00;;;5.15;;
55589;SDS011;41452;42.780;23.116;2022-08-19T05:23:58;12.68;;;5.72;;
55589;SDS011;41452;42.780;23.116;2022-08-19T05:26:24;13.88;;;5.95;;
55589;SDS011;41452;42.780;23.116;2022-08-19T05:28:51;15.27;;;6.43;;
55589;SDS011;41452;42.780;23.116;2022-08-19T05:31:17;10.73;;;5.97;;
55589;SDS011;41452;42.780;23.116;2022-08-19T05:33:42;19.70;;;6.85;;
55589;SDS011;41452;42.780;23.116;2022-08-19T05:36:08;18.95;;;6.80;;
55589;SDS011;41452;42.780;23.116;2022-08-19T05:38:34;8.38;;;6.20;;
55589;SDS011;41452;42.780;23.116;2022-08-19T05:41:00;9.10;;;6.35;;
55589;SDS011;41452;42.780;23.116;2022-08-19T05:43:31;11.15;;;5.18;;
55589;SDS011;41452;42.780;23.116;2022-08-19T05:45:56;9.38;;;6.20;;
55589;SDS011;41452;42.780;23.116;2022-08-19T05:48:21;9.45;;;6.30;;
55589;SDS011;41452;42.780;23.116;2022-08-19T05:50:47;9.50;;;6.05;;
55589;SDS011;41452;42.780;23.116;2022-08-19T05:53:15;9.68;;;6.28;;
55589;SDS011;41452;42.780;23.116;2022-08-19T05:55:41;11.35;;;6.38;;
55589;SDS011;41452;42.780;23.116;2022-08-19T05:58:06;11.63;;;6.68;;
55589;SDS011;41452;42.780;23.116;2022-08-19T06:00:33;10.18;;;6.22;;
55589;SDS011;41452;42.780;23.116;2022-08-19T06:02:59;9.30;;;6.07;;
55589;SDS011;41452;42.780;23.116;2022-08-19T06:05:28;9.43;;;5.80;;
55589;SDS011;41452;42.780;23.116;2022-08-19T06:07:54;10.20;;;6.25;;
55589;SDS011;41452;42.780;23.116;2022-08-19T06:10:20;8.38;;;5.68;;
55589;SDS011;41452;42.780;23.116;2022-08-19T06:12:46;7.50;;;5.97;;
55589;SDS011;41452;42.780;23.116;2022-08-19T06:15:13;10.90;;;5.95;;
55589;SDS011;41452;42.780;23.116;2022-08-19T06:17:39;9.32;;;6.13;;
55589;SDS011;41452;42.780;23.116;2022-08-19T06:20:07;13.02;;;6.53;;
55589;SDS011;41452;42.780;23.116;2022-08-19T06:22:38;11.05;;;6.18;;
55589;SDS011;41452;42.780;23.116;2022-08-19T06:25:09;15.75;;;6.60;;
55589;SDS011;41452;42.780;23.116;2022-08-19T06:27:35;10.52;;;6.38;;
55589;SDS011;41452;42.780;23.116;2022-08-19T06:30:02;12.55;;;7.50;;
55589;SDS011;41452;42.780;23.116;2022-08-19T06:32:28;11.57;;;6.75;;
55589;SDS011;41452;42.780;23.116;2022-08-19T06:34:53;12.60;;;7.15;;
55589;SDS011;41452;42.780;23.116;2022-08-19T06:37:19;14.65;;;6.70;;
55589;SDS011;41452;42.780;23.116;2022-08-19T06:39:46;11.20;;;6.68;;
55589;SDS011;41452;42.780;23.116;2022-08-19T06:42:12;11.27;;;6.30;;
55589;SDS011;41452;42.780;23.116;2022-08-19T06:44:41;11.52;;;6.65;;
55589;SDS011;41452;42.780;23.116;2022-08-19T06:47:10;13.52;;;6.18;;
55589;SDS011;41452;42.780;23.116;2022-08-19T06:49:37;16.00;;;5.88;;
55589;SDS011;41452;42.780;23.116;2022-08-19T06:52:03;15.73;;;6.10;;
55589;SDS011;41452;42.780;23.116;2022-08-19T06:54:29;11.73;;;6.43;;
55589;SDS011;41452;42.780;23.116;2022-08-19T06:56:56;14.38;;;6.75;;
55589;SDS011;41452;42.780;23.116;2022-08-19T06:59:27;15.93;;;6.55;;
55589;SDS011;41452;42.780;23.116;2022-08-19T07:01:56;14.73;;;5.75;;
55589;SDS011;41452;42.780;23.116;2022-08-19T07:04:23;15.18;;;6.85;;
55589;SDS011;41452;42.780;23.116;2022-08-19T07:06:56;11.57;;;5.78;;
55589;SDS011;41452;42.780;23.116;2022-08-19T07:09:34;15.90;;;6.10;;
55589;SDS011;41452;42.780;23.116;2022-08-19T07:12:05;9.98;;;5.68;;
55589;SDS011;41452;42.780;23.116;2022-08-19T07:14:32;11.60;;;6.13;;
55589;SDS011;41452;42.780;23.116;2022-08-19T07:17:02;14.82;;;6.15;;
55589;SDS011;41452;42.780;23.116;2022-08-19T07:19:30;8.48;;;5.45;;
55589;SDS011;41452;42.780;23.116;2022-08-19T07:21:56;8.98;;;5.40;;
55589;SDS011;41452;42.780;23.116;2022-08-19T07:24:22;10.95;;;5.75;;
55589;SDS011;41452;42.780;23.116;2022-08-19T07:26:50;6.57;;;5.40;;
55589;SDS011;41452;42.780;23.116;2022-08-19T07:29:17;13.90;;;5.78;;
55589;SDS011;41452;42.780;23.116;2022-08-19T07:31:44;11.25;;;6.35;;
55589;SDS011;41452;42.780;23.116;2022-08-19T07:34:10;7.85;;;6.03;;
55589;SDS011;41452;42.780;23.116;2022-08-19T07:36:37;8.93;;;5.68;;
55589;SDS011;41452;42.780;23.116;2022-08-19T07:39:10;11.13;;;6.35;;
55589;SDS011;41452;42.780;23.116;2022-08-19T07:41:40;14.02;;;5.85;;
55589;SDS011;41452;42.780;23.116;2022-08-19T07:44:07;11.23;;;6.88;;
55589;SDS011;41452;42.780;23.116;2022-08-19T07:46:35;10.90;;;5.20;;
55589;SDS011;41452;42.780;23.116;2022-08-19T07:49:03;9.07;;;5.38;;
55589;SDS011;41452;42.780;23.116;2022-08-19T07:51:30;14.38;;;6.13;;
55589;SDS011;41452;42.780;23.116;2022-08-19T07:53:55;7.28;;;6.15;;
55589;SDS011;41452;42.780;23.116;2022-08-19T07:56:21;9.07;;;5.30;;
55589;SDS011;41452;42.780;23.116;2022-08-19T07:58:48;8.10;;;5.28;;
55589;SDS011;41452;42.780;23.116;2022-08-19T08:01:18;10.00;;;6.30;;
55589;SDS011;41452;42.780;23.116;2022-08-19T08:03:48;9.25;;;5.25;;
55589;SDS011;41452;42.780;23.116;2022-08-19T08:06:34;12.85;;;5.88;;
55589;SDS011;41452;42.780;23.116;2022-08-19T08:09:20;6.32;;;5.40;;
55589;SDS011;41452;42.780;23.116;2022-08-19T08:11:54;11.20;;;5.60;;
55589;SDS011;41452;42.780;23.116;2022-08-19T08:14:24;12.00;;;5.70;;
55589;SDS011;41452;42.780;23.116;2022-08-19T08:17:00;9.55;;;5.15;;
55589;SDS011;41452;42.780;23.116;2022-08-19T08:19:27;7.18;;;5.57;;
55589;SDS011;41452;42.780;23.116;2022-08-19T08:21:54;7.40;;;5.70;;
55589;SDS011;41452;42.780;23.116;2022-08-19T08:24:22;7.35;;;5.22;;
55589;SDS011;41452;42.780;23.116;2022-08-19T08:26:47;11.38;;;5.45;;
55589;SDS011;41452;42.780;23.116;2022-08-19T08:29:13;7.57;;;5.32;;
55589;SDS011;41452;42.780;23.116;2022-08-19T08:31:40;10.13;;;5.53;;
55589;SDS011;41452;42.780;23.116;2022-08-19T08:34:08;6.65;;;4.68;;
55589;SDS011;41452;42.780;23.116;2022-08-19T08:36:36;7.85;;;4.80;;
55589;SDS011;41452;42.780;23.116;2022-08-19T08:39:06;6.40;;;4.85;;
55589;SDS011;41452;42.780;23.116;2022-08-19T08:44:17;7.85;;;4.65;;
55589;SDS011;41452;42.780;23.116;2022-08-19T08:46:48;5.38;;;4.18;;
55589;SDS011;41452;42.780;23.116;2022-08-19T08:52:07;7.93;;;4.22;;
55589;SDS011;41452;42.780;23.116;2022-08-19T08:54:39;7.43;;;4.22;;
55589;SDS011;41452;42.780;23.116;2022-08-19T08:57:10;8.13;;;4.40;;
55589;SDS011;41452;42.780;23.116;2022-08-19T08:59:40;9.65;;;4.38;;
55589;SDS011;41452;42.780;23.116;2022-08-19T09:02:08;7.90;;;4.35;;
55589;SDS011;41452;42.780;23.116;2022-08-19T09:04:35;6.00;;;4.20;;
55589;SDS011;41452;42.780;23.116;2022-08-19T09:09:43;4.93;;;3.42;;
55589;SDS011;41452;42.780;23.116;2022-08-19T09:17:25;5.25;;;2.65;;
55589;SDS011;41452;42.780;23.116;2022-08-19T09:24:54;5.93;;;3.30;;
55589;SDS011;41452;42.780;23.116;2022-08-19T09:27:21;5.57;;;3.10;;
55589;SDS011;41452;42.780;23.116;2022-08-19T09:29:51;4.05;;;2.92;;
55589;SDS011;41452;42.780;23.116;2022-08-19T09:32:16;6.25;;;3.30;;
55589;SDS011;41452;42.780;23.116;2022-08-19T09:34:43;4.95;;;3.35;;
55589;SDS011;41452;42.780;23.116;2022-08-19T09:37:08;3.88;;;2.70;;
55589;SDS011;41452;42.780;23.116;2022-08-19T09:39:34;5.40;;;2.90;;
55589;SDS011;41452;42.780;23.116;2022-08-19T09:42:00;5.07;;;2.90;;
55589;SDS011;41452;42.780;23.116;2022-08-19T09:44:25;7.32;;;3.00;;
55589;SDS011;41452;42.780;23.116;2022-08-19T09:46:51;4.68;;;2.60;;
55589;SDS011;41452;42.780;23.116;2022-08-19T09:49:17;8.18;;;2.38;;
55589;SDS011;41452;42.780;23.116;2022-08-19T09:51:43;5.65;;;2.70;;
55589;SDS011;41452;42.780;23.116;2022-08-19T09:54:09;5.93;;;2.88;;
55589;SDS011;41452;42.780;23.116;2022-08-19T09:56:35;7.38;;;2.83;;
55589;SDS011;41452;42.780;23.116;2022-08-19T09:59:01;15.25;;;4.00;;
55589;SDS011;41452;42.780;23.116;2022-08-19T10:01:29;8.02;;;3.10;;
55589;SDS011;41452;42.780;23.116;2022-08-19T10:03:56;6.07;;;2.88;;
55589;SDS011;41452;42.780;23.116;2022-08-19T10:06:23;8.90;;;3.25;;
55589;SDS011;41452;42.780;23.116;2022-08-19T10:08:51;4.55;;;2.80;;
55589;SDS011;41452;42.780;23.116;2022-08-19T10:11:17;6.78;;;3.10;;
55589;SDS011;41452;42.780;23.116;2022-08-19T10:13:44;5.78;;;3.10;;
55589;SDS011;41452;42.780;23.116;2022-08-19T10:16:12;4.85;;;3.35;;
55589;SDS011;41452;42.780;23.116;2022-08-19T10:18:40;6.43;;;3.10;;
55589;SDS011;41452;42.780;23.116;2022-08-19T10:21:19;8.00;;;3.33;;
55589;SDS011;41452;42.780;23.116;2022-08-19T10:23:47;5.53;;;2.70;;
55589;SDS011;41452;42.780;23.116;2022-08-19T10:26:15;4.85;;;2.88;;
55589;SDS011;41452;42.780;23.116;2022-08-19T10:28:43;6.60;;;3.47;;
55589;SDS011;41452;42.780;23.116;2022-08-19T10:31:10;5.13;;;3.30;;
55589;SDS011;41452;42.780;23.116;2022-08-19T10:33:38;5.72;;;3.70;;
55589;SDS011;41452;42.780;23.116;2022-08-19T10:36:11;5.72;;;3.17;;
55589;SDS011;41452;42.780;23.116;2022-08-19T10:38:43;8.65;;;3.20;;
55589;SDS011;41452;42.780;23.116;2022-08-19T10:41:17;6.05;;;3.25;;
55589;SDS011;41452;42.780;23.116;2022-08-19T10:43:45;5.05;;;2.88;;
55589;SDS011;41452;42.780;23.116;2022-08-19T10:46:11;5.07;;;3.13;;
55589;SDS011;41452;42.780;23.116;2022-08-19T10:48:40;6.63;;;3.00;;
55589;SDS011;41452;42.780;23.116;2022-08-19T10:51:06;5.15;;;3.30;;
55589;SDS011;41452;42.780;23.116;2022-08-19T10:53:50;4.82;;;3.05;;
55589;SDS011;41452;42.780;23.116;2022-08-19T10:56:17;6.80;;;2.90;;
55589;SDS011;41452;42.780;23.116;2022-08-19T10:59:01;3.70;;;2.65;;
55589;SDS011;41452;42.780;23.116;2022-08-19T11:01:28;7.32;;;3.35;;
55589;SDS011;41452;42.780;23.116;2022-08-19T11:03:55;6.60;;;3.20;;
55589;SDS011;41452;42.780;23.116;2022-08-19T11:06:22;5.53;;;3.20;;
55589;SDS011;41452;42.780;23.116;2022-08-19T11:08:48;4.88;;;3.08;;
55589;SDS011;41452;42.780;23.116;2022-08-19T11:11:13;6.40;;;3.25;;
55589;SDS011;41452;42.780;23.116;2022-08-19T11:13:40;9.15;;;2.90;;
55589;SDS011;41452;42.780;23.116;2022-08-19T11:16:07;4.15;;;2.95;;
55589;SDS011;41452;42.780;23.116;2022-08-19T11:18:40;5.28;;;2.95;;
55589;SDS011;41452;42.780;23.116;2022-08-19T11:21:12;5.75;;;3.10;;
55589;SDS011;41452;42.780;23.116;2022-08-19T11:23:46;5.82;;;3.05;;
55589;SDS011;41452;42.780;23.116;2022-08-19T11:26:14;5.88;;;3.20;;
55589;SDS011;41452;42.780;23.116;2022-08-19T11:28:40;4.72;;;3.28;;
55589;SDS011;41452;42.780;23.116;2022-08-19T11:31:10;5.03;;;3.20;;
55589;SDS011;41452;42.780;23.116;2022-08-19T11:33:41;4.25;;;3.10;;
55589;SDS011;41452;42.780;23.116;2022-08-19T11:36:06;4.88;;;3.17;;
55589;SDS011;41452;42.780;23.116;2022-08-19T11:38:32;5.97;;;3.20;;
55589;SDS011;41452;42.780;23.116;2022-08-19T11:41:01;5.53;;;3.03;;
55589;SDS011;41452;42.780;23.116;2022-08-19T11:43:29;5.38;;;3.10;;
55589;SDS011;41452;42.780;23.116;2022-08-19T11:45:55;4.57;;;3.15;;
55589;SDS011;41452;42.780;23.116;2022-08-19T11:48:21;5.03;;;3.00;;
55589;SDS011;41452;42.780;23.116;2022-08-19T11:50:48;8.20;;;3.20;;
55589;SDS011;41452;42.780;23.116;2022-08-19T11:53:15;4.90;;;3.15;;
55589;SDS011;41452;42.780;23.116;2022-08-19T11:55:41;5.88;;;3.13;;
55589;SDS011;41452;42.780;23.116;2022-08-19T11:58:07;5.47;;;3.22;;
55589;SDS011;41452;42.780;23.116;2022-08-19T12:00:33;6.60;;;3.00;;
55589;SDS011;41452;42.780;23.116;2022-08-19T12:03:01;6.70;;;3.17;;
55589;SDS011;41452;42.780;23.116;2022-08-19T12:05:27;8.85;;;3.05;;
55589;SDS011;41452;42.780;23.116;2022-08-19T12:07:53;7.50;;;3.10;;
55589;SDS011;41452;42.780;23.116;2022-08-19T12:10:19;6.45;;;2.90;;
55589;SDS011;41452;42.780;23.116;2022-08-19T12:12:46;6.53;;;2.88;;
55589;SDS011;41452;42.780;23.116;2022-08-19T12:15:12;5.63;;;3.10;;
55589;SDS011;41452;42.780;23.116;2022-08-19T12:17:40;6.15;;;2.75;;
55589;SDS011;41452;42.780;23.116;2022-08-19T12:20:07;6.88;;;3.17;;
55589;SDS011;41452;42.780;23.116;2022-08-19T12:22:35;8.98;;;2.90;;
55589;SDS011;41452;42.780;23.116;2022-08-19T12:25:02;5.80;;;2.60;;
55589;SDS011;41452;42.780;23.116;2022-08-19T12:27:28;7.13;;;2.90;;
55589;SDS011;41452;42.780;23.116;2022-08-19T12:29:54;9.75;;;3.30;;
55589;SDS011;41452;42.780;23.116;2022-08-19T12:32:19;5.50;;;2.75;;
55589;SDS011;41452;42.780;23.116;2022-08-19T12:34:46;4.45;;;2.58;;
55589;SDS011;41452;42.780;23.116;2022-08-19T12:37:12;7.47;;;2.90;;
55589;SDS011;41452;42.780;23.116;2022-08-19T12:39:39;10.88;;;3.17;;
55589;SDS011;41452;42.780;23.116;2022-08-19T12:42:07;6.28;;;3.00;;
55589;SDS011;41452;42.780;23.116;2022-08-19T12:44:34;7.68;;;3.47;;
55589;SDS011;41452;42.780;23.116;2022-08-19T12:47:00;8.07;;;2.85;;
55589;SDS011;41452;42.780;23.116;2022-08-19T12:49:28;9.35;;;3.03;;
55589;SDS011;41452;42.780;23.116;2022-08-19T12:51:54;9.57;;;3.05;;
55589;SDS011;41452;42.780;23.116;2022-08-19T12:54:20;15.20;;;3.45;;
55589;SDS011;41452;42.780;23.116;2022-08-19T12:56:45;10.85;;;3.28;;
55589;SDS011;41452;42.780;23.116;2022-08-19T12:59:11;8.05;;;3.17;;
55589;SDS011;41452;42.780;23.116;2022-08-19T13:01:36;13.32;;;4.15;;
55589;SDS011;41452;42.780;23.116;2022-08-19T13:04:03;6.07;;;3.30;;
55589;SDS011;41452;42.780;23.116;2022-08-19T13:06:28;9.20;;;3.10;;
55589;SDS011;41452;42.780;23.116;2022-08-19T13:08:54;11.75;;;2.95;;
55589;SDS011;41452;42.780;23.116;2022-08-19T13:11:20;7.00;;;3.03;;
55589;SDS011;41452;42.780;23.116;2022-08-19T13:13:49;10.63;;;3.13;;
55589;SDS011;41452;42.780;23.116;2022-08-19T13:16:16;8.82;;;3.08;;
55589;SDS011;41452;42.780;23.116;2022-08-19T13:18:44;6.75;;;2.92;;
55589;SDS011;41452;42.780;23.116;2022-08-19T13:21:12;7.32;;;3.30;;
55589;SDS011;41452;42.780;23.116;2022-08-19T13:23:38;12.73;;;3.67;;
55589;SDS011;41452;42.780;23.116;2022-08-19T13:26:06;4.97;;;2.80;;
55589;SDS011;41452;42.780;23.116;2022-08-19T13:28:33;4.95;;;3.00;;
55589;SDS011;41452;42.780;23.116;2022-08-19T13:31:18;5.10;;;2.97;;
55589;SDS011;41452;42.780;23.116;2022-08-19T13:34:04;7.55;;;3.30;;
55589;SDS011;41452;42.780;23.116;2022-08-19T13:36:31;7.85;;;3.55;;
55589;SDS011;41452;42.780;23.116;2022-08-19T13:38:57;10.18;;;3.50;;
55589;SDS011;41452;42.780;23.116;2022-08-19T13:41:23;7.88;;;3.45;;
55589;SDS011;41452;42.780;23.116;2022-08-19T13:43:49;9.65;;;3.50;;
55589;SDS011;41452;42.780;23.116;2022-08-19T13:46:15;6.05;;;3.50;;
55589;SDS011;41452;42.780;23.116;2022-08-19T13:48:41;11.63;;;3.55;;
55589;SDS011;41452;42.780;23.116;2022-08-19T13:51:07;9.15;;;3.50;;
55589;SDS011;41452;42.780;23.116;2022-08-19T13:53:38;16.20;;;3.42;;
55589;SDS011;41452;42.780;23.116;2022-08-19T13:56:05;9.50;;;3.60;;
55589;SDS011;41452;42.780;23.116;2022-08-19T13:58:32;8.07;;;3.15;;
55589;SDS011;41452;42.780;23.116;2022-08-19T14:00:57;13.27;;;3.45;;
55589;SDS011;41452;42.780;23.116;2022-08-19T14:03:24;6.82;;;3.10;;
55589;SDS011;41452;42.780;23.116;2022-08-19T14:05:50;13.68;;;3.35;;
55589;SDS011;41452;42.780;23.116;2022-08-19T14:08:15;9.02;;;3.20;;
55589;SDS011;41452;42.780;23.116;2022-08-19T14:10:41;6.95;;;3.15;;
55589;SDS011;41452;42.780;23.116;2022-08-19T14:13:09;7.18;;;3.50;;
55589;SDS011;41452;42.780;23.116;2022-08-19T14:15:35;6.55;;;3.15;;
55589;SDS011;41452;42.780;23.116;2022-08-19T14:18:02;15.85;;;3.33;;
55589;SDS011;41452;42.780;23.116;2022-08-19T14:20:27;5.57;;;3.35;;
55589;SDS011;41452;42.780;23.116;2022-08-19T14:22:54;6.50;;;3.28;;
55589;SDS011;41452;42.780;23.116;2022-08-19T14:25:22;6.80;;;3.30;;
55589;SDS011;41452;42.780;23.116;2022-08-19T14:27:51;9.35;;;3.28;;
55589;SDS011;41452;42.780;23.116;2022-08-19T14:30:20;6.50;;;3.05;;
55589;SDS011;41452;42.780;23.116;2022-08-19T14:35:16;9.18;;;3.60;;
55589;SDS011;41452;42.780;23.116;2022-08-19T14:37:43;10.00;;;3.78;;
55589;SDS011;41452;42.780;23.116;2022-08-19T14:40:09;13.40;;;3.35;;
55589;SDS011;41452;42.780;23.116;2022-08-19T14:42:36;4.95;;;3.10;;
55589;SDS011;41452;42.780;23.116;2022-08-19T14:45:02;9.85;;;3.47;;
55589;SDS011;41452;42.780;23.116;2022-08-19T14:47:30;7.97;;;3.00;;
55589;SDS011;41452;42.780;23.116;2022-08-19T14:49:55;12.27;;;3.40;;
55589;SDS011;41452;42.780;23.116;2022-08-19T14:52:21;6.32;;;3.67;;
55589;SDS011;41452;42.780;23.116;2022-08-19T14:54:47;9.93;;;3.88;;